createdAt,value
2023-01-01T00:02:04.836Z,100278.91
2023-01-01T00:05:32.314Z,100277.67
2023-01-01T00:09:13.110Z,100274.69
2023-01-01T00:12:40.389Z,100274.69
2023-01-01T00:16:12.651Z,100273.98
2023-01-01T00:19:39.947Z,100277.30
2023-01-01T00:23:06.946Z,100289.23
2023-01-01T00:26:35.586Z,100282.55
2023-01-01T00:30:04.443Z,100275.55
2023-01-01T00:33:31.598Z,100276.77
2023-01-01T00:36:59.566Z,100266.94
2023-01-01T00:40:26.738Z,100258.70
2023-01-01T00:43:53.694Z,100267.65
2023-01-01T00:47:20.540Z,100277.48
2023-01-01T00:50:47.606Z,100285.20
2023-01-01T00:54:14.459Z,100288.36
2023-01-01T00:57:41.828Z,100290.11
2023-01-01T01:01:09.487Z,100284.33
2023-01-01T01:04:36.787Z,100280.82
2023-01-01T01:08:03.695Z,100284.66
2023-01-01T01:11:30.864Z,100289.76
2023-01-01T01:14:57.721Z,100289.77
2023-01-01T01:18:24.674Z,100304.50
2023-01-01T01:21:52.583Z,100305.36
2023-01-01T01:25:19.737Z,100298.70
2023-01-01T01:28:50.086Z,100295.70
2023-01-01T01:32:17.481Z,100296.59
2023-01-01T01:35:51.313Z,100304.84
2023-01-01T01:39:18.351Z,100314.98
2023-01-01T01:42:48.665Z,100319.89
2023-01-01T01:46:19.009Z,100322.67
2023-01-01T01:49:47.474Z,100321.95
2023-01-01T01:53:19.113Z,100322.08
2023-01-01T01:56:51.776Z,100322.06
2023-01-01T02:00:20.109Z,100323.80
2023-01-01T02:03:52.961Z,100327.65
2023-01-01T02:07:20.800Z,100336.23
2023-01-01T02:10:47.750Z,100337.96
2023-01-01T02:14:15.311Z,100330.27
2023-01-01T02:17:53.745Z,100332.73
2023-01-01T02:21:26.598Z,100332.55
2023-01-01T02:25:06.432Z,100332.03
2023-01-01T02:28:51.885Z,100336.08
2023-01-01T02:32:22.389Z,100346.61
2023-01-01T02:35:53.707Z,100340.83
2023-01-01T02:39:23.772Z,100347.14
2023-01-01T02:42:51.940Z,100347.48
2023-01-01T02:49:52.634Z,100354.13
2023-01-01T02:53:28.509Z,100352.20
2023-01-01T02:57:06.291Z,100351.84
2023-01-01T03:00:35.384Z,100354.29
2023-01-01T03:04:13.006Z,100360.76
2023-01-01T03:07:50.148Z,100363.91
2023-01-01T03:11:19.950Z,100368.82
2023-01-01T03:14:47.570Z,100379.14
2023-01-01T03:18:20.353Z,100375.62
2023-01-01T03:21:51.849Z,100374.74
2023-01-01T03:25:24.002Z,100371.23
2023-01-01T03:28:57.139Z,100371.75
2023-01-01T03:32:50.006Z,100370.33
2023-01-01T03:36:20.497Z,100371.55
2023-01-01T03:39:51.142Z,100375.91
2023-01-01T03:43:23.795Z,100378.20
2023-01-01T03:46:51.515Z,100368.70
2023-01-01T03:50:19.093Z,100369.91
2023-01-01T03:53:46.322Z,100369.71
2023-01-01T03:57:21.131Z,100375.85
2023-01-01T04:00:52.724Z,100377.59
2023-01-01T04:04:20.706Z,100381.95
2023-01-01T04:11:50.109Z,100401.53
2023-01-01T04:15:17.443Z,100410.25
2023-01-01T04:18:44.458Z,100408.45
2023-01-01T04:22:11.480Z,100411.89
2023-01-01T04:25:38.407Z,100406.76
2023-01-01T04:29:05.288Z,100410.23
2023-01-01T04:32:33.299Z,100408.79
2023-01-01T04:36:07.410Z,100412.44
2023-01-01T04:39:34.301Z,100410.30
2023-01-01T04:43:01.657Z,100411.18
2023-01-01T04:46:28.802Z,100413.29
2023-01-01T04:49:55.680Z,100414.70
2023-01-01T04:53:22.662Z,100405.96
2023-01-01T04:56:49.454Z,100410.88
2023-01-01T05:00:17.459Z,100407.92
2023-01-01T05:03:44.547Z,100409.34
2023-01-01T05:07:11.356Z,100416.55
2023-01-01T05:10:38.234Z,100423.42
2023-01-01T05:14:05.530Z,100418.71
2023-01-01T05:17:32.337Z,100426.09
2023-01-01T05:21:03.392Z,100428.91
2023-01-01T05:24:31.499Z,100431.58
2023-01-01T05:27:58.401Z,100428.11
2023-01-01T05:31:27.337Z,100438.50
2023-01-01T05:34:55.156Z,100436.77
2023-01-01T05:38:22.464Z,100442.09
2023-01-01T05:41:49.378Z,100444.53
2023-01-01T05:45:16.410Z,100450.15
2023-01-01T05:48:43.487Z,100447.34
2023-01-01T05:52:10.550Z,100452.06
2023-01-01T05:55:37.415Z,100461.16
2023-01-01T05:59:05.488Z,100464.45
2023-01-01T06:02:34.294Z,100468.95
2023-01-01T06:06:06.321Z,100477.16
2023-01-01T06:09:33.508Z,100477.65
2023-01-01T06:13:00.621Z,100483.42
2023-01-01T06:16:29.741Z,100486.56
2023-01-01T06:19:56.668Z,100492.02
2023-01-01T06:23:23.506Z,100498.33
2023-01-01T06:26:50.334Z,100504.86
2023-01-01T06:30:17.341Z,100504.55
2023-01-01T06:33:44.773Z,100508.79
2023-01-01T06:37:11.739Z,100519.37
2023-01-01T06:40:38.609Z,100525.20
2023-01-01T06:44:05.818Z,100526.83
2023-01-01T06:47:36.352Z,100527.72
2023-01-01T06:51:11.365Z,100532.30
2023-01-01T06:54:38.295Z,100543.02
2023-01-01T06:58:09.342Z,100545.31
2023-01-01T07:01:44.454Z,100548.84
2023-01-01T07:05:12.493Z,100553.42
2023-01-01T07:08:39.617Z,100556.47
2023-01-01T07:12:07.071Z,100561.60
2023-01-01T07:15:34.422Z,100566.20
2023-01-01T07:19:01.788Z,100567.80
2023-01-01T07:22:29.198Z,100570.83
2023-01-01T07:25:57.547Z,100571.91
2023-01-01T07:29:24.843Z,100572.48
2023-01-01T07:32:57.436Z,100576.38
2023-01-01T07:36:24.518Z,100576.77
2023-01-01T07:39:51.526Z,100582.22
2023-01-01T07:43:18.467Z,100591.73
2023-01-01T07:46:45.409Z,100598.42
2023-01-01T07:50:18.350Z,100602.83
2023-01-01T07:53:45.270Z,100602.33
2023-01-01T07:57:12.357Z,100594.80
2023-01-01T08:00:39.592Z,100589.03
2023-01-01T08:04:06.734Z,100594.14
2023-01-01T08:07:33.717Z,100596.27
2023-01-01T08:11:04.440Z,100592.97
2023-01-01T08:14:29.781Z,100592.46
2023-01-01T08:18:00.298Z,100588.98
2023-01-01T08:21:27.609Z,100593.55
2023-01-01T08:24:54.751Z,100596.36
2023-01-01T08:28:21.607Z,100591.83
2023-01-01T08:31:48.478Z,100590.79
2023-01-01T08:35:15.664Z,100597.45
2023-01-01T08:38:42.532Z,100595.35
2023-01-01T08:42:12.401Z,100600.79
2023-01-01T08:45:39.711Z,100598.34
2023-01-01T08:49:06.956Z,100596.39
2023-01-01T08:52:34.228Z,100600.27
2023-01-01T08:56:03.938Z,100603.09
2023-01-01T08:59:31.009Z,100608.19
2023-01-01T09:02:58.104Z,100613.30
2023-01-01T09:06:25.268Z,100612.42
2023-01-01T09:09:52.344Z,100614.73
2023-01-01T09:13:22.738Z,100613.50
2023-01-01T09:16:49.854Z,100615.97
2023-01-01T09:20:18.944Z,100617.55
2023-01-01T09:23:45.962Z,100623.17
2023-01-01T09:27:12.866Z,100622.13
2023-01-01T09:30:39.785Z,100622.31
2023-01-01T09:34:06.712Z,100618.44
2023-01-01T09:37:34.620Z,100621.27
2023-01-01T09:41:10.619Z,100620.21
2023-01-01T09:45:00.325Z,100626.73
2023-01-01T09:48:30.525Z,100627.06
2023-01-01T09:52:01.798Z,100622.68
2023-01-01T09:55:44.772Z,100616.88
2023-01-01T09:59:13.327Z,100621.79
2023-01-01T10:02:54.019Z,100623.20
2023-01-01T10:06:27.312Z,100619.66
2023-01-01T10:10:05.098Z,100617.90
2023-01-01T10:13:39.153Z,100620.02
2023-01-01T10:17:12.395Z,100619.30
2023-01-01T10:20:44.163Z,100625.63
2023-01-01T10:24:29.400Z,100629.86
2023-01-01T10:28:01.112Z,100635.50
2023-01-01T10:31:34.563Z,100635.50
2023-01-01T10:35:03.543Z,100633.57
2023-01-01T10:38:30.824Z,100634.98
2023-01-01T10:42:01.619Z,100637.61
2023-01-01T10:45:34.260Z,100633.40
2023-01-01T10:49:12.182Z,100636.20
2023-01-01T10:52:41.049Z,100633.03
2023-01-01T10:56:11.790Z,100619.67
2023-01-01T10:59:40.876Z,100619.67
2023-01-01T11:03:21.211Z,100622.83
2023-01-01T11:06:49.371Z,100631.63
2023-01-01T11:10:21.304Z,100638.50
2023-01-01T11:13:52.854Z,100640.09
2023-01-01T11:17:24.979Z,100635.69
2023-01-01T11:20:57.403Z,100637.80
2023-01-01T11:24:27.004Z,100629.88
2023-01-01T11:27:52.402Z,100625.31
2023-01-01T11:31:21.579Z,100636.91
2023-01-01T11:34:54.963Z,100640.77
2023-01-01T11:38:29.524Z,100642.19
2023-01-01T11:41:59.388Z,100640.61
2023-01-01T11:45:37.247Z,100638.85
2023-01-01T11:49:13.853Z,100641.13
2023-01-01T11:52:42.599Z,100646.04
2023-01-01T11:56:14.110Z,100647.27
2023-01-01T11:59:48.244Z,100652.55
2023-01-01T12:03:33.322Z,100649.77
2023-01-01T12:07:06.478Z,100655.56
2023-01-01T12:10:41.715Z,100663.31
2023-01-01T12:14:18.483Z,100664.70
2023-01-01T12:17:48.466Z,100675.45
2023-01-01T12:21:23.667Z,100682.50
2023-01-01T12:24:52.108Z,100678.77
2023-01-01T12:28:35.159Z,100682.12
2023-01-01T12:32:08.239Z,100677.72
2023-01-01T12:35:45.176Z,100675.43
2023-01-01T12:39:45.837Z,100667.18
2023-01-01T12:43:15.921Z,100661.36
2023-01-01T12:46:57.943Z,100665.06
2023-01-01T12:50:36.916Z,100665.59
2023-01-01T12:54:31.534Z,100668.93
2023-01-01T12:58:05.884Z,100678.95
2023-01-01T13:01:34.997Z,100673.50
2023-01-01T13:05:09.012Z,100677.90
2023-01-01T13:08:38.981Z,100677.89
2023-01-01T13:12:09.259Z,100667.34
2023-01-01T13:15:55.245Z,100670.49
2023-01-01T13:19:35.062Z,100676.64
2023-01-01T13:23:01.956Z,100685.77
2023-01-01T13:26:42.759Z,100695.95
2023-01-01T13:30:53.738Z,100713.67
2023-01-01T13:34:50.843Z,100728.93
2023-01-01T13:38:44.772Z,100739.44
2023-01-01T13:42:41.669Z,100743.08
2023-01-01T13:46:13.034Z,100731.41
2023-01-01T13:49:59.900Z,100727.91
2023-01-01T13:53:51.101Z,100735.45
2023-01-01T13:57:33.462Z,100735.06
2023-01-01T14:01:36.106Z,100747.52
2023-01-01T14:05:06.906Z,100760.64
2023-01-01T14:08:35.415Z,100767.98
2023-01-01T14:12:16.086Z,100769.16
2023-01-01T14:15:51.243Z,100772.27
2023-01-01T14:19:18.303Z,100782.77
2023-01-01T14:22:47.014Z,100783.45
2023-01-01T14:26:16.675Z,100782.86
2023-01-01T14:29:43.247Z,100786.15
2023-01-01T14:33:25.299Z,100793.25
2023-01-01T14:36:56.621Z,100802.65
2023-01-01T14:40:29.580Z,100797.83
2023-01-01T14:43:59.432Z,100798.44
2023-01-01T14:47:30.131Z,100801.12
2023-01-01T14:50:58.480Z,100813.09
2023-01-01T14:54:32.461Z,100825.56
2023-01-01T14:58:02.336Z,100825.59
2023-01-01T15:01:29.769Z,100835.26
2023-01-01T15:04:58.411Z,100844.02
2023-01-01T15:08:27.034Z,100852.11
2023-01-01T15:11:56.590Z,100859.14
2023-01-01T15:15:44.294Z,100867.23
2023-01-01T15:19:24.340Z,100857.60
2023-01-01T15:22:52.949Z,100861.83
2023-01-01T15:26:30.340Z,100864.84
2023-01-01T15:29:57.888Z,100874.34
2023-01-01T15:33:25.542Z,100880.70
2023-01-01T15:36:54.433Z,100891.96
2023-01-01T15:40:52.760Z,100893.77
2023-01-01T15:44:29.330Z,100898.30
2023-01-01T15:47:58.509Z,100903.09
2023-01-01T15:51:28.417Z,100907.16
2023-01-01T15:54:55.751Z,100909.83
2023-01-01T15:58:31.872Z,100911.80
2023-01-01T16:02:13.539Z,100901.71
2023-01-01T16:05:50.314Z,100899.35
2023-01-01T16:09:20.187Z,100895.77
2023-01-01T16:12:47.030Z,100897.95
2023-01-01T16:16:28.225Z,100899.15
2023-01-01T16:19:56.389Z,100895.63
2023-01-01T16:23:23.732Z,100901.56
2023-01-01T16:26:50.897Z,100904.48
2023-01-01T16:30:18.436Z,100899.70
2023-01-01T16:33:46.308Z,100910.16
2023-01-01T16:37:13.225Z,100917.27
2023-01-01T16:40:40.495Z,100921.27
2023-01-01T16:44:07.671Z,100920.04
2023-01-01T16:47:34.600Z,100927.73
2023-01-01T16:51:01.842Z,100932.21
2023-01-01T16:54:28.974Z,100934.66
2023-01-01T16:58:21.235Z,100937.14
2023-01-01T17:01:44.886Z,100932.91
2023-01-01T17:05:12.927Z,100936.40
2023-01-01T17:08:40.793Z,100935.86
2023-01-01T17:12:08.454Z,100937.25
2023-01-01T17:15:35.860Z,100938.63
2023-01-01T17:19:18.144Z,100945.47
2023-01-01T17:22:46.150Z,100946.83
2023-01-01T17:26:16.024Z,100953.98
2023-01-01T17:29:43.005Z,100951.34
2023-01-01T17:33:10.017Z,100946.27
2023-01-01T17:36:36.892Z,100945.02
2023-01-01T17:40:03.915Z,100946.40
2023-01-01T17:43:34.921Z,100947.79
2023-01-01T17:47:02.071Z,100946.71
2023-01-01T17:50:29.852Z,100953.20
2023-01-01T17:53:57.571Z,100954.09
2023-01-01T17:57:25.392Z,100955.32
2023-01-01T18:00:52.905Z,100966.02
2023-01-01T18:04:20.793Z,100969.87
2023-01-01T18:07:47.657Z,100974.91
2023-01-01T18:11:14.920Z,100980.98
2023-01-01T18:14:41.997Z,100988.45
2023-01-01T18:18:08.895Z,100989.43
2023-01-01T18:21:36.354Z,100995.13
2023-01-01T18:25:03.357Z,100998.00
2023-01-01T18:28:31.201Z,101000.69
2023-01-01T18:31:58.182Z,101009.16
2023-01-01T18:35:25.066Z,101010.45
2023-01-01T18:39:00.573Z,101007.60
2023-01-01T18:42:44.342Z,101013.12
2023-01-01T18:46:12.429Z,101013.27
2023-01-01T18:49:40.743Z,101019.94
2023-01-01T18:53:19.302Z,101022.73
2023-01-01T18:56:48.107Z,101022.38
2023-01-01T19:00:24.170Z,101016.77
2023-01-01T19:03:53.707Z,101016.21
2023-01-01T19:07:21.220Z,101016.70
2023-01-01T19:10:50.618Z,101015.63
2023-01-01T19:14:20.010Z,101016.96
2023-01-01T19:17:47.489Z,101019.33
2023-01-01T19:21:22.531Z,101024.69
2023-01-01T19:24:49.479Z,101031.94
2023-01-01T19:28:39.414Z,101038.67
2023-01-01T19:32:06.982Z,101034.21
2023-01-01T19:35:33.857Z,101029.73
2023-01-01T19:39:01.143Z,101027.19
2023-01-01T19:42:28.447Z,101028.86
2023-01-01T19:45:55.422Z,101028.96
2023-01-01T19:49:22.236Z,101032.38
2023-01-01T19:52:49.230Z,101040.70
2023-01-01T19:56:16.890Z,101041.69
2023-01-01T19:59:43.818Z,101046.39
2023-01-01T20:03:51.448Z,101045.96
2023-01-01T20:06:57.782Z,101042.45
2023-01-01T20:10:25.167Z,101036.55
2023-01-01T20:13:52.517Z,101034.24
2023-01-01T20:17:19.808Z,101026.21
2023-01-01T20:21:00.671Z,101028.83
2023-01-01T20:24:27.865Z,101029.52
2023-01-01T20:28:12.443Z,101021.77
2023-01-01T20:31:40.530Z,101022.13
2023-01-01T20:35:08.606Z,101021.98
2023-01-01T20:38:40.019Z,101023.78
2023-01-01T20:42:08.090Z,101034.99
2023-01-01T20:45:35.055Z,101046.05
2023-01-01T20:49:02.031Z,101056.23
2023-01-01T20:52:29.850Z,101060.61
2023-01-01T20:55:56.730Z,101063.00
2023-01-01T20:59:35.396Z,101069.79
2023-01-01T21:03:04.336Z,101073.80
2023-01-01T21:06:31.399Z,101070.85
2023-01-01T21:09:58.287Z,101072.95
2023-01-01T21:13:25.781Z,101065.60
2023-01-01T21:16:53.016Z,101064.08
2023-01-01T21:20:20.393Z,101062.85
2023-01-01T21:23:47.842Z,101063.75
2023-01-01T21:27:19.073Z,101062.39
2023-01-01T21:30:51.773Z,101059.33
2023-01-01T21:34:38.456Z,101059.06
2023-01-01T21:38:17.451Z,101058.28
2023-01-01T21:41:44.506Z,101054.84
2023-01-01T21:45:19.333Z,101048.77
2023-01-01T21:48:56.396Z,101041.78
2023-01-01T21:52:26.064Z,101044.02
2023-01-01T21:55:55.343Z,101038.05
2023-01-01T21:59:30.373Z,101034.15
2023-01-01T22:02:57.291Z,101032.70
2023-01-01T22:06:24.440Z,101031.46
2023-01-01T22:09:52.428Z,101033.04
2023-01-01T22:13:20.830Z,101033.94
2023-01-01T22:16:52.453Z,101043.08
2023-01-01T22:20:24.165Z,101039.11
2023-01-01T22:23:55.754Z,101040.56
2023-01-01T22:27:30.188Z,101046.94
2023-01-01T22:31:01.096Z,101047.89
2023-01-01T22:34:28.220Z,101044.13
2023-01-01T22:37:56.641Z,101038.42
2023-01-01T22:41:23.951Z,101034.97
2023-01-01T22:45:00.538Z,101036.56
2023-01-01T22:48:33.692Z,101034.69
2023-01-01T22:52:01.767Z,101031.09
2023-01-01T22:55:28.893Z,101030.59
2023-01-01T22:58:57.630Z,101026.59
2023-01-01T23:02:24.982Z,101021.39
2023-01-01T23:05:53.058Z,101024.05
2023-01-01T23:09:20.138Z,101011.10
2023-01-01T23:12:47.267Z,100991.84
2023-01-01T23:16:14.363Z,100990.23
2023-01-01T23:19:41.379Z,100989.80
2023-01-01T23:23:08.330Z,100985.36
2023-01-01T23:26:35.435Z,100988.98
2023-01-01T23:30:03.686Z,100992.61
2023-01-01T23:33:32.615Z,100991.69
2023-01-01T23:36:59.863Z,100989.72
2023-01-01T23:40:27.078Z,100978.30
2023-01-01T23:43:53.985Z,100978.95
2023-01-01T23:47:21.168Z,100970.91
2023-01-01T23:50:48.865Z,100970.73
2023-01-01T23:54:15.910Z,100978.19
2023-01-01T23:57:42.873Z,100974.16
